createdAt,value
2023-02-25T00:00:18.183Z,9.00
2023-02-25T00:02:51.924Z,10.43
2023-02-25T00:05:22.308Z,12.20
2023-02-25T00:07:52.467Z,8.70
2023-02-25T00:10:22.761Z,10.50
2023-02-25T00:12:52.857Z,19.03
2023-02-25T00:15:23.100Z,10.53
2023-02-25T00:18:01.320Z,7.10
2023-02-25T00:20:31.506Z,16.73
2023-02-25T00:23:01.488Z,6.53
2023-02-25T00:25:31.704Z,19.57
2023-02-25T00:28:06.262Z,18.10
2023-02-25T00:30:36.445Z,8.37
2023-02-25T00:33:11.323Z,19.27
2023-02-25T00:35:43.030Z,11.07
2023-02-25T00:38:16.052Z,16.60
2023-02-25T00:40:47.174Z,10.70
2023-02-25T00:43:31.914Z,12.07
2023-02-25T00:46:02.434Z,11.03
2023-02-25T00:48:35.316Z,11.87
2023-02-25T00:51:10.216Z,8.37
2023-02-25T00:53:40.837Z,16.80
2023-02-25T00:56:15.097Z,16.17
2023-02-25T00:59:03.171Z,14.40
2023-02-25T01:01:47.836Z,10.57
2023-02-25T01:04:20.613Z,10.77
2023-02-25T01:12:32.486Z,6.83
2023-02-25T01:15:12.501Z,8.13
2023-02-25T01:17:44.472Z,11.43
2023-02-25T01:20:24.386Z,10.53
2023-02-25T01:22:54.637Z,10.80
2023-02-25T01:25:25.708Z,8.63
2023-02-25T01:28:01.688Z,11.87
2023-02-25T01:30:35.863Z,10.73
2023-02-25T01:33:10.614Z,6.17
2023-02-25T01:35:43.337Z,12.30
2023-02-25T01:38:13.393Z,5.00
2023-02-25T01:40:49.545Z,14.73
2023-02-25T01:43:19.624Z,9.07
2023-02-25T01:46:10.922Z,9.37
2023-02-25T01:48:44.546Z,10.43
2023-02-25T01:51:17.240Z,8.80
2023-02-25T01:53:50.248Z,6.07
2023-02-25T01:56:47.499Z,10.57
2023-02-25T01:59:18.442Z,7.23
2023-02-25T02:01:49.064Z,14.63
2023-02-25T02:04:21.535Z,16.47
2023-02-25T02:06:54.713Z,9.70
2023-02-25T02:09:28.808Z,10.57
2023-02-25T02:12:02.075Z,10.97
2023-02-25T02:14:35.961Z,10.93
2023-02-25T02:17:23.603Z,8.03
2023-02-25T02:20:14.412Z,9.43
2023-02-25T02:23:11.597Z,8.57
2023-02-25T02:26:15.311Z,12.57
2023-02-25T02:29:32.438Z,10.87
2023-02-25T02:32:17.646Z,11.63
2023-02-25T02:34:56.678Z,13.50
2023-02-25T02:37:41.481Z,12.43
2023-02-25T02:40:25.822Z,11.03
2023-02-25T02:43:18.434Z,11.07
2023-02-25T02:45:54.065Z,13.40
2023-02-25T02:48:33.422Z,18.80
2023-02-25T02:51:10.944Z,10.00
2023-02-25T02:53:45.941Z,11.93
2023-02-25T02:56:26.892Z,9.77
2023-02-25T02:59:02.348Z,14.03
2023-02-25T03:01:35.886Z,13.60
2023-02-25T03:04:28.761Z,7.53
2023-02-25T03:07:05.235Z,7.10
2023-02-25T03:10:05.179Z,12.57
2023-02-25T03:12:39.631Z,7.87
2023-02-25T03:15:11.899Z,11.00
2023-02-25T03:17:46.208Z,7.70
2023-02-25T03:20:27.525Z,8.60
2023-02-25T03:22:59.757Z,17.33
2023-02-25T03:25:34.190Z,7.70
2023-02-25T03:28:07.839Z,14.73
2023-02-25T03:30:43.974Z,7.07
2023-02-25T03:33:17.504Z,13.23
2023-02-25T03:35:54.125Z,11.37
2023-02-25T03:38:29.705Z,11.37
2023-02-25T03:41:04.193Z,19.40
2023-02-25T03:43:54.554Z,8.60
2023-02-25T03:46:26.461Z,11.37
2023-02-25T03:48:57.484Z,19.47
2023-02-25T03:51:34.138Z,13.97
2023-02-25T03:54:05.437Z,15.27
2023-02-25T03:56:44.963Z,12.43
2023-02-25T03:59:15.186Z,8.03
2023-02-25T04:01:47.721Z,5.10
2023-02-25T04:04:18.245Z,8.03
2023-02-25T04:06:51.203Z,7.17
2023-02-25T04:09:21.792Z,7.67
2023-02-25T04:11:54.346Z,9.03
2023-02-25T04:14:24.393Z,12.97
2023-02-25T04:16:54.494Z,12.80
2023-02-25T04:19:26.908Z,12.40
2023-02-25T04:22:00.609Z,7.83
2023-02-25T04:24:30.722Z,8.73
2023-02-25T04:27:01.950Z,11.37
2023-02-25T04:29:37.861Z,17.60
2023-02-25T04:32:08.009Z,7.80
2023-02-25T04:34:38.123Z,7.03
2023-02-25T04:37:11.021Z,9.50
2023-02-25T04:39:41.689Z,10.33
2023-02-25T04:42:11.775Z,9.13
2023-02-25T04:44:41.776Z,19.60
2023-02-25T04:47:11.752Z,9.20
2023-02-25T04:49:45.246Z,10.93
2023-02-25T04:52:18.424Z,5.77
2023-02-25T04:54:48.353Z,8.97
2023-02-25T04:57:18.343Z,11.97
2023-02-25T04:59:49.517Z,13.53
2023-02-25T05:02:20.213Z,10.37
2023-02-25T05:04:50.425Z,10.23
2023-02-25T05:07:24.020Z,9.30
2023-02-25T05:09:54.150Z,14.77
2023-02-25T05:12:24.423Z,14.10
2023-02-25T05:14:54.695Z,13.77
2023-02-25T05:17:24.818Z,11.67
2023-02-25T05:19:54.906Z,14.77
2023-02-25T05:22:29.496Z,10.20
2023-02-25T05:24:59.658Z,13.23
2023-02-25T05:27:29.663Z,9.67
2023-02-25T05:30:01.887Z,9.87
2023-02-25T05:32:33.953Z,16.20
2023-02-25T05:35:09.046Z,10.40
2023-02-25T05:37:41.887Z,8.73
2023-02-25T05:40:14.927Z,14.87
2023-02-25T05:42:51.405Z,9.13
2023-02-25T05:45:22.051Z,8.23
2023-02-25T05:48:02.841Z,9.17
2023-02-25T05:50:34.840Z,7.87
2023-02-25T05:53:10.059Z,10.33
2023-02-25T05:55:44.536Z,13.10
2023-02-25T05:58:15.181Z,11.17
2023-02-25T06:00:45.309Z,10.53
2023-02-25T06:03:15.453Z,13.10
2023-02-25T06:05:47.925Z,8.93
2023-02-25T06:08:20.790Z,9.90
2023-02-25T06:10:50.760Z,13.47
2023-02-25T06:13:20.948Z,8.47
2023-02-25T06:15:51.024Z,12.20
2023-02-25T06:18:21.791Z,7.53
2023-02-25T06:20:51.908Z,13.67
2023-02-25T06:23:30.752Z,6.80
2023-02-25T06:26:01.250Z,10.00
2023-02-25T06:28:31.490Z,10.47
2023-02-25T06:31:01.502Z,12.60
2023-02-25T06:33:32.700Z,16.70
2023-02-25T06:36:02.697Z,15.87
2023-02-25T06:38:35.499Z,17.33
2023-02-25T06:41:10.118Z,12.80
2023-02-25T06:43:41.351Z,16.43
2023-02-25T06:46:14.025Z,11.37
2023-02-25T06:48:44.396Z,16.07
2023-02-25T06:51:15.674Z,11.40
2023-02-25T06:53:57.162Z,7.33
2023-02-25T06:56:27.354Z,12.03
2023-02-25T06:58:59.518Z,11.27
2023-02-25T07:01:31.445Z,10.93
2023-02-25T07:04:01.587Z,17.87
2023-02-25T07:06:31.663Z,12.97
2023-02-25T07:09:04.435Z,21.00
2023-02-25T07:11:36.868Z,12.80
2023-02-25T07:14:09.312Z,12.03
2023-02-25T07:16:39.470Z,17.37
2023-02-25T07:19:09.642Z,10.33
2023-02-25T07:21:40.655Z,12.30
2023-02-25T07:24:14.404Z,14.63
2023-02-25T07:26:44.393Z,13.23
2023-02-25T07:29:17.414Z,12.60
2023-02-25T07:31:47.950Z,11.10
2023-02-25T07:34:20.101Z,14.27
2023-02-25T07:36:50.263Z,13.93
2023-02-25T07:39:23.007Z,14.80
2023-02-25T07:41:53.124Z,15.27
2023-02-25T07:44:23.917Z,17.07
2023-02-25T07:46:55.422Z,6.83
2023-02-25T07:49:25.521Z,9.80
2023-02-25T07:51:55.665Z,14.90
2023-02-25T07:54:32.799Z,10.70
2023-02-25T07:57:03.094Z,14.20
2023-02-25T07:59:43.049Z,17.60
2023-02-25T08:02:39.408Z,12.30
2023-02-25T08:05:10.318Z,9.10
2023-02-25T08:07:44.688Z,11.50
2023-02-25T08:10:49.044Z,9.90
2023-02-25T08:13:22.326Z,12.13
2023-02-25T08:15:52.409Z,11.13
2023-02-25T08:18:43.188Z,10.57
2023-02-25T08:21:13.631Z,9.17
2023-02-25T08:23:43.874Z,9.13
2023-02-25T08:26:16.074Z,8.70
2023-02-25T08:28:49.582Z,14.90
2023-02-25T08:31:19.964Z,2.80
2023-02-25T08:33:53.201Z,11.20
2023-02-25T08:36:25.405Z,11.03
2023-02-25T08:38:59.144Z,13.40
2023-02-25T08:41:30.990Z,10.17
2023-02-25T08:44:03.610Z,11.43
2023-02-25T08:46:35.962Z,14.27
2023-02-25T08:49:07.230Z,12.70
2023-02-25T08:51:38.758Z,4.70
2023-02-25T08:54:13.970Z,15.03
2023-02-25T08:56:45.737Z,7.70
2023-02-25T08:59:40.235Z,11.93
2023-02-25T09:02:17.306Z,8.67
2023-02-25T09:04:47.353Z,5.87
2023-02-25T09:07:24.955Z,12.23
2023-02-25T09:09:55.058Z,10.00
2023-02-25T09:12:25.602Z,8.50
2023-02-25T09:14:58.369Z,9.60
2023-02-25T09:17:42.583Z,3.73
2023-02-25T09:20:19.124Z,7.37
2023-02-25T09:22:49.195Z,10.40
2023-02-25T09:25:19.544Z,10.73
2023-02-25T09:27:49.862Z,5.77
2023-02-25T09:30:22.761Z,5.30
2023-02-25T09:32:56.244Z,8.93
2023-02-25T09:35:26.530Z,3.63
2023-02-25T09:37:56.726Z,4.20
2023-02-25T09:40:27.012Z,6.87
2023-02-25T09:43:11.800Z,7.40
2023-02-25T09:45:47.715Z,9.07
2023-02-25T09:48:26.996Z,3.40
2023-02-25T09:51:04.491Z,3.53
2023-02-25T09:53:39.793Z,4.03
2023-02-25T09:56:11.228Z,3.20
2023-02-25T09:58:47.045Z,1.57
2023-02-25T10:01:27.732Z,5.40
2023-02-25T10:04:05.337Z,3.70
2023-02-25T10:06:43.714Z,1.60
2023-02-25T10:09:25.122Z,2.33
2023-02-25T10:12:02.320Z,1.10
2023-02-25T10:14:58.656Z,1.27
2023-02-25T10:17:44.584Z,8.87
2023-02-25T10:20:44.457Z,6.10
2023-02-25T10:23:26.285Z,2.70
2023-02-25T10:26:01.900Z,4.93
2023-02-25T10:28:33.687Z,2.90
2023-02-25T10:31:09.253Z,7.13
2023-02-25T10:33:44.100Z,4.17
2023-02-25T10:36:19.407Z,8.23
2023-02-25T10:38:51.547Z,6.27
2023-02-25T10:41:25.604Z,5.50
2023-02-25T10:43:57.832Z,4.10
2023-02-25T10:46:36.555Z,5.50
2023-02-25T10:49:21.155Z,8.43
2023-02-25T10:52:18.770Z,4.43
2023-02-25T10:58:03.093Z,6.37
2023-02-25T11:00:36.666Z,2.57
2023-02-25T11:03:11.118Z,9.30
2023-02-25T11:06:35.439Z,4.80
2023-02-25T11:09:30.018Z,3.03
2023-02-25T11:12:42.154Z,4.87
2023-02-25T11:15:44.790Z,6.13
2023-02-25T11:18:28.894Z,1.73
2023-02-25T11:21:10.350Z,7.90
2023-02-25T11:23:47.508Z,5.33
2023-02-25T11:26:32.508Z,8.00
2023-02-25T11:29:51.249Z,4.87
2023-02-25T11:32:25.648Z,5.20
2023-02-25T11:39:13.580Z,2.73
2023-02-25T11:42:10.504Z,7.37
2023-02-25T11:51:47.289Z,3.70
2023-02-25T11:54:52.729Z,7.60
2023-02-25T11:57:38.724Z,6.07
2023-02-25T12:00:25.790Z,12.13
2023-02-25T12:03:16.821Z,1.73
2023-02-25T12:05:56.521Z,7.37
2023-02-25T12:08:47.566Z,3.13
2023-02-25T12:12:11.574Z,8.97
2023-02-25T12:15:24.387Z,7.30
2023-02-25T12:21:49.108Z,8.93
2023-02-25T12:24:57.536Z,4.67
2023-02-25T12:28:33.432Z,5.13
2023-02-25T12:32:02.930Z,5.73
2023-02-25T12:34:57.769Z,5.80
2023-02-25T12:41:51.537Z,5.73
2023-02-25T12:52:27.479Z,2.57
2023-02-25T12:55:28.568Z,6.77
2023-02-25T12:58:32.484Z,5.50
2023-02-25T13:01:45.855Z,4.43
2023-02-25T13:05:14.731Z,5.27
2023-02-25T13:08:30.619Z,5.63
2023-02-25T13:12:09.929Z,5.63
2023-02-25T13:34:10.076Z,3.37
2023-02-25T14:04:07.501Z,1.97
2023-02-25T14:07:15.942Z,3.30
2023-02-25T14:09:54.730Z,1.73
2023-02-25T14:12:39.199Z,1.37
2023-02-25T14:15:24.637Z,3.90
2023-02-25T14:18:24.054Z,2.17
2023-02-25T14:21:09.773Z,1.83
2023-02-25T14:23:52.135Z,2.83
2023-02-25T14:26:36.675Z,2.33
2023-02-25T14:29:18.994Z,2.40
2023-02-25T14:32:05.079Z,1.37
2023-02-25T14:34:59.326Z,5.80
2023-02-25T14:37:40.419Z,1.07
2023-02-25T14:40:25.960Z,3.00
2023-02-25T14:43:15.253Z,3.80
2023-02-25T14:45:49.098Z,8.33
2023-02-25T14:48:27.807Z,3.40
2023-02-25T14:51:07.965Z,0.80
2023-02-25T14:54:02.141Z,3.00
2023-02-25T14:57:01.211Z,3.90
2023-02-25T15:00:00.797Z,0.73
2023-02-25T15:02:53.255Z,0.93
2023-02-25T15:05:52.756Z,3.23
2023-02-25T15:08:56.551Z,1.00
2023-02-25T15:12:04.131Z,2.20
2023-02-25T15:15:14.484Z,1.27
2023-02-25T15:18:29.998Z,1.90
2023-02-25T15:21:00.677Z,1.70
2023-02-25T15:23:52.396Z,2.97
2023-02-25T15:26:25.266Z,1.70
2023-02-25T15:28:58.469Z,3.97
2023-02-25T15:31:34.327Z,2.73
2023-02-25T15:34:36.932Z,2.40
2023-02-25T15:37:39.091Z,3.17
2023-02-25T15:40:38.941Z,1.23
2023-02-25T15:43:38.744Z,4.17
2023-02-25T15:46:44.236Z,4.27
2023-02-25T15:49:37.942Z,4.17
2023-02-25T15:52:09.374Z,2.60
2023-02-25T15:54:50.652Z,3.50
2023-02-25T15:57:42.302Z,1.03
2023-02-25T16:00:42.190Z,2.10
2023-02-25T16:03:29.430Z,7.33
2023-02-25T16:06:07.277Z,3.77
2023-02-25T16:08:44.473Z,5.10
2023-02-25T16:11:25.897Z,1.67
2023-02-25T16:13:56.765Z,3.43
2023-02-25T16:16:28.303Z,4.30
2023-02-25T16:19:00.819Z,4.33
2023-02-25T16:21:43.204Z,2.37
2023-02-25T16:24:14.662Z,0.67
2023-02-25T16:26:56.626Z,1.83
2023-02-25T16:29:53.032Z,2.37
2023-02-25T16:32:33.945Z,2.47
2023-02-25T16:35:12.078Z,3.90
2023-02-25T16:37:53.099Z,2.87
2023-02-25T16:40:28.874Z,3.67
2023-02-25T16:43:02.867Z,1.70
2023-02-25T16:45:36.314Z,2.00
2023-02-25T16:48:11.016Z,9.00
2023-02-25T16:50:42.238Z,4.10
2023-02-25T16:53:22.412Z,2.50
2023-02-25T16:55:54.066Z,3.80
2023-02-25T16:58:26.202Z,2.87
2023-02-25T17:00:58.394Z,1.60
2023-02-25T17:03:31.108Z,4.67
2023-02-25T17:06:07.779Z,3.43
2023-02-25T17:08:46.768Z,4.10
2023-02-25T17:11:20.186Z,7.53
2023-02-25T17:13:51.476Z,4.83
2023-02-25T17:16:25.016Z,2.43
2023-02-25T17:18:59.048Z,2.20
2023-02-25T17:21:33.891Z,3.60
2023-02-25T17:24:09.848Z,2.47
2023-02-25T17:26:45.178Z,1.80
2023-02-25T17:29:18.067Z,3.07
2023-02-25T17:31:51.052Z,3.43
2023-02-25T17:34:24.294Z,2.03
2023-02-25T17:36:55.398Z,1.40
2023-02-25T17:39:29.805Z,2.33
2023-02-25T17:41:59.960Z,3.13
2023-02-25T17:44:48.225Z,2.80
2023-02-25T17:47:24.789Z,2.43
2023-02-25T17:49:55.816Z,3.93
2023-02-25T17:52:27.553Z,5.17
2023-02-25T17:55:03.975Z,3.67
2023-02-25T17:57:35.488Z,2.53
2023-02-25T18:00:23.904Z,6.30
2023-02-25T18:03:17.487Z,3.27
2023-02-25T18:05:54.107Z,2.77
2023-02-25T18:08:25.102Z,2.47
2023-02-25T18:11:01.193Z,3.10
2023-02-25T18:13:36.935Z,1.70
2023-02-25T18:16:39.453Z,7.80
2023-02-25T18:19:29.995Z,2.47
2023-02-25T18:22:01.253Z,1.00
2023-02-25T18:24:34.686Z,6.30
2023-02-25T18:27:26.316Z,6.97
2023-02-25T18:29:57.345Z,2.60
2023-02-25T18:32:28.161Z,3.43
2023-02-25T18:34:58.730Z,3.83
2023-02-25T18:37:32.325Z,6.37
2023-02-25T18:40:02.595Z,2.87
2023-02-25T18:42:35.267Z,2.37
2023-02-25T18:45:15.972Z,4.20
2023-02-25T18:47:46.357Z,6.50
2023-02-25T18:50:17.053Z,2.47
2023-02-25T18:52:47.578Z,2.13
2023-02-25T18:55:21.142Z,4.73
2023-02-25T18:57:54.235Z,5.57
2023-02-25T19:00:27.706Z,2.40
2023-02-25T19:03:00.059Z,5.63
2023-02-25T19:05:30.863Z,5.20
2023-02-25T19:08:01.144Z,4.63
2023-02-25T19:10:34.385Z,3.53
2023-02-25T19:13:10.814Z,2.60
2023-02-25T19:15:40.938Z,4.47
2023-02-25T19:18:14.538Z,7.80
2023-02-25T19:20:45.377Z,3.77
2023-02-25T19:23:17.692Z,4.50
2023-02-25T19:25:52.405Z,5.43
2023-02-25T19:28:28.335Z,7.30
2023-02-25T19:30:58.341Z,6.60
2023-02-25T19:33:29.694Z,2.83
2023-02-25T19:36:00.520Z,3.60
2023-02-25T19:38:30.589Z,4.03
2023-02-25T19:41:04.471Z,7.77
2023-02-25T19:43:37.767Z,4.83
2023-02-25T19:46:11.987Z,6.43
2023-02-25T19:48:42.147Z,6.43
2023-02-25T19:51:13.498Z,6.63
2023-02-25T19:53:43.774Z,3.70
2023-02-25T19:56:16.954Z,4.00
2023-02-25T19:58:49.694Z,10.13
2023-02-25T20:01:20.586Z,8.03
2023-02-25T20:03:51.380Z,10.57
2023-02-25T20:06:23.685Z,6.23
2023-02-25T20:08:56.219Z,7.63
2023-02-25T20:11:26.813Z,12.23
2023-02-25T20:14:00.536Z,6.23
2023-02-25T20:16:30.914Z,9.17
2023-02-25T20:19:01.202Z,8.03
2023-02-25T20:21:31.726Z,8.93
2023-02-25T20:24:02.307Z,9.93
2023-02-25T20:26:33.536Z,6.00
2023-02-25T20:29:06.575Z,11.43
2023-02-25T20:31:36.714Z,5.50
2023-02-25T20:34:07.079Z,3.70
2023-02-25T20:36:44.045Z,8.00
2023-02-25T20:39:34.649Z,6.60
2023-02-25T20:42:06.508Z,5.73
2023-02-25T20:44:39.781Z,10.50
2023-02-25T20:47:10.394Z,5.93
2023-02-25T20:49:41.352Z,7.00
2023-02-25T20:52:14.688Z,5.77
2023-02-25T20:54:45.097Z,5.37
2023-02-25T20:57:18.010Z,6.93
2023-02-25T20:59:51.217Z,6.60
2023-02-25T21:02:21.573Z,3.80
2023-02-25T21:04:52.188Z,9.80
2023-02-25T21:07:22.279Z,4.03
2023-02-25T21:09:52.381Z,6.57
2023-02-25T21:12:22.376Z,1.97
2023-02-25T21:14:55.444Z,5.03
2023-02-25T21:17:25.515Z,6.43
2023-02-25T21:19:55.664Z,6.07
2023-02-25T21:22:25.748Z,9.30
2023-02-25T21:24:57.720Z,8.90
2023-02-25T21:27:30.397Z,11.17
2023-02-25T21:30:03.374Z,9.80
2023-02-25T21:32:33.358Z,6.80
2023-02-25T21:35:04.326Z,6.20
2023-02-25T21:37:34.408Z,5.13
2023-02-25T21:40:04.464Z,6.87
2023-02-25T21:42:34.577Z,8.50
2023-02-25T21:45:09.994Z,4.77
2023-02-25T21:47:42.898Z,8.03
2023-02-25T21:50:14.497Z,6.00
2023-02-25T21:52:44.354Z,7.03
2023-02-25T21:55:14.746Z,1.47
2023-02-25T21:57:45.072Z,6.90
2023-02-25T22:00:18.622Z,1.73
2023-02-25T22:02:48.766Z,8.57
2023-02-25T22:05:21.093Z,9.07
2023-02-25T22:07:51.438Z,5.17
2023-02-25T22:10:22.321Z,6.57
2023-02-25T22:12:52.548Z,3.00
2023-02-25T22:15:25.286Z,3.90
2023-02-25T22:17:55.238Z,2.10
2023-02-25T22:20:25.165Z,3.37
2023-02-25T22:22:55.295Z,9.77
2023-02-25T22:25:25.156Z,3.23
2023-02-25T22:27:55.066Z,4.13
2023-02-25T22:30:27.948Z,8.30
2023-02-25T22:32:58.111Z,3.00
2023-02-25T22:35:28.453Z,6.60
2023-02-25T22:37:58.365Z,2.43
2023-02-25T22:40:29.129Z,5.37
2023-02-25T22:42:59.264Z,2.37
2023-02-25T22:45:31.862Z,2.47
2023-02-25T22:48:01.856Z,5.30
2023-02-25T22:50:31.966Z,5.23
2023-02-25T22:53:02.261Z,4.23
2023-02-25T22:55:32.266Z,5.30
2023-02-25T22:58:04.513Z,3.33
2023-02-25T23:00:40.325Z,4.80
2023-02-25T23:03:11.108Z,6.30
2023-02-25T23:05:41.083Z,3.00
2023-02-25T23:08:10.935Z,5.17
2023-02-25T23:10:41.137Z,4.43
2023-02-25T23:13:11.797Z,3.70
2023-02-25T23:15:47.636Z,8.43
2023-02-25T23:18:19.353Z,4.73
2023-02-25T23:20:53.688Z,3.77
2023-02-25T23:23:23.557Z,3.60
2023-02-25T23:25:55.237Z,4.50
2023-02-25T23:28:28.236Z,3.33
2023-02-25T23:31:01.289Z,3.37
2023-02-25T23:33:31.695Z,2.57
2023-02-25T23:36:02.339Z,3.13
2023-02-25T23:38:32.241Z,2.50
2023-02-25T23:41:02.422Z,2.93
2023-02-25T23:43:32.620Z,3.57
2023-02-25T23:46:09.189Z,5.20
2023-02-25T23:48:39.126Z,5.47
2023-02-25T23:51:11.002Z,5.03
2023-02-25T23:53:40.914Z,2.50
2023-02-25T23:56:13.022Z,4.30
2023-02-25T23:58:43.145Z,3.07
